< < Back
Terminal Aerodrome Forecast


Current Version              Previous Versions:   1  2  3  4  5  6  7  8  9  

Terminal Aerodrome Forecast

962
FTUS44 KMOB 180500 RRA
TAFPNS
TAF
KPNS 180555Z 1806/1906 04005KT 4SM RA BR BKN008 OVC014
      TEMPO 1806/1808 3SM SHRA BKN015
     FM180800 05014G21KT 3SM SHRA BR OVC007
     FM181600 36008G15KT 4SM -RA OVC015
     FM181900 36010G18KT P6SM VCSH SCT015 BKN050=



Latest METAR

566
SAUS70 KWBC 181000 RRA
MTRPNS
METAR KPNS 180953Z AUTO 04007KT 4SM RA BR BKN009 OVC012 16/14 A3003 RMK
AO2 SLP172 P0015 T01610144


USA.gov is the U.S. government's official web portal to all federal, state and local government web resources and services.